Time;durP1;ratioP1;P1;durP2;ratioP2;P2;SDS_P1;SDS_P2;PMS_P1;PMS_P2;Temp;Humidity;BMP_temperature;BMP_pressure;BME280_temperature;BME280_humidity;BME280_pressure;Samples;Min_cycle;Max_cycle;Signal;HPM_P1;HPM_P2
2023/10/02 00:01:18;;;;;;;16.80;15.07;;;;;;;18.00;77.79;95465.16;5052289;28;20448;-77
2023/10/02 00:03:48;;;;;;;16.33;12.07;;;;;;;17.97;77.29;95462.81;5052447;28;20527;-77
2023/10/02 00:06:16;;;;;;;18.23;12.60;;;;;;;18.02;76.92;95455.19;5055766;28;20505;-77
2023/10/02 00:08:49;;;;;;;15.53;12.40;;;;;;;17.99;76.50;95456.34;5056487;28;20484;-77
2023/10/02 00:11:37;;;;;;;15.60;11.53;;;;;;;18.05;76.08;95438.94;5056057;28;20441;-77
2023/10/02 00:14:20;;;;;;;14.83;10.90;;;;;;;17.92;75.71;95442.88;5039985;28;20832;-77
2023/10/02 00:17:03;;;;;;;16.77;13.20;;;;;;;17.88;78.53;95443.34;5056268;28;20450;-77
2023/10/02 00:19:35;;;;;;;17.07;12.60;;;;;;;17.84;75.47;95453.47;5056325;28;20450;-77
2023/10/02 00:22:05;;;;;;;18.90;10.80;;;;;;;17.80;75.42;95446.81;5056180;28;20439;-78
2023/10/02 00:24:35;;;;;;;16.07;10.30;;;;;;;17.74;75.19;95451.94;5056055;28;20908;-77
2023/10/02 00:27:03;;;;;;;11.13;9.97;;;;;;;17.64;75.77;95442.28;5055834;28;20994;-78
2023/10/02 00:29:30;;;;;;;15.70;11.03;;;;;;;17.66;76.27;95450.06;5020382;28;20434;-77
2023/10/02 00:31:58;;;;;;;13.23;10.50;;;;;;;17.70;74.72;95451.44;5055724;28;20446;-77
2023/10/02 00:34:32;;;;;;;14.80;10.07;;;;;;;17.61;75.01;95452.34;5056079;28;20448;-77
2023/10/02 00:37:05;;;;;;;13.93;10.03;;;;;;;17.55;74.98;95443.22;5055659;28;20445;-77
2023/10/02 00:39:32;;;;;;;13.63;10.57;;;;;;;17.38;75.23;95448.63;5055674;28;20449;-77
2023/10/02 00:44:56;;;;;;;11.17;10.00;;;;;;;17.54;76.18;95444.19;4974120;28;21063;-77
2023/10/02 00:47:38;;;;;;;14.57;9.57;;;;;;;17.74;75.47;95447.47;4974436;28;20541;-77
2023/10/02 00:50:10;;;;;;;13.77;10.00;;;;;;;17.89;75.59;95443.19;4974186;28;20489;-78
2023/10/02 00:52:42;;;;;;;12.57;9.80;;;;;;;17.78;73.00;95438.19;4974410;28;20461;-77
2023/10/02 00:55:12;;;;;;;14.03;9.70;;;;;;;17.82;73.08;95452.81;4974302;28;20848;-77
2023/10/02 00:57:41;;;;;;;14.60;8.20;;;;;;;17.83;73.56;95446.50;4974375;28;20459;-77
2023/10/02 01:00:21;;;;;;;15.77;8.13;;;;;;;17.81;73.54;95447.66;4974190;28;20449;-77
2023/10/02 01:02:50;;;;;;;10.50;9.30;;;;;;;17.73;73.51;95435.19;4974291;28;20986;-78
2023/10/02 01:05:21;;;;;;;10.70;9.10;;;;;;;17.85;73.31;95436.56;4973988;28;20943;-77
2023/10/02 01:07:53;;;;;;;10.37;8.67;;;;;;;17.92;73.28;95442.03;4974156;28;20833;-77
2023/10/02 01:10:20;;;;;;;10.47;8.40;;;;;;;17.91;73.26;95438.56;4973991;28;20491;-77
2023/10/02 01:12:49;;;;;;;9.67;7.40;;;;;;;17.86;72.11;95435.56;4974022;28;20453;-77
2023/10/02 01:15:26;;;;;;;9.50;8.30;;;;;;;17.72;73.34;95430.88;4973414;28;21022;-77
2023/10/02 01:17:53;;;;;;;8.93;7.57;;;;;;;17.78;72.19;95427.56;4973907;28;20995;-77
2023/10/02 01:20:35;;;;;;;11.87;8.20;;;;;;;17.81;72.15;95435.22;4973684;28;20844;-78
2023/10/02 01:23:16;;;;;;;11.23;8.90;;;;;;;17.75;72.52;95430.56;5049387;28;20450;-77
2023/10/02 01:25:44;;;;;;;13.47;7.53;;;;;;;17.64;74.27;95429.00;5023548;28;20824;-77
2023/10/02 01:28:13;;;;;;;13.70;9.33;;;;;;;17.66;72.68;95423.53;5036211;28;20442;-77
2023/10/02 01:30:42;;;;;;;10.40;8.40;;;;;;;17.70;72.84;95421.41;5054694;28;20437;-76
2023/10/02 01:33:22;;;;;;;11.40;8.33;;;;;;;17.74;73.33;95425.41;5054679;28;20862;-77
2023/10/02 01:35:50;;;;;;;9.00;8.10;;;;;;;17.79;71.75;95431.06;5054449;28;20502;-77
2023/10/02 01:38:26;;;;;;;13.43;8.23;;;;;;;17.72;71.98;95427.41;5054840;28;20437;-77
2023/10/02 01:41:02;;;;;;;8.97;6.80;;;;;;;17.65;71.32;95432.47;5019737;28;20537;-77
2023/10/02 01:43:32;;;;;;;12.97;8.23;;;;;;;17.57;70.93;95429.78;5054094;28;20473;-77
2023/10/02 01:46:00;;;;;;;10.50;8.03;;;;;;;17.54;72.53;95438.88;5054447;28;20481;-77
2023/10/02 01:48:48;;;;;;;10.57;8.87;;;;;;;17.56;71.53;95433.41;5054488;28;20448;-77
2023/10/02 01:51:20;;;;;;;9.13;7.30;;;;;;;17.53;71.27;95434.56;5054543;28;20446;-77
2023/10/02 01:53:48;;;;;;;12.63;7.63;;;;;;;17.49;71.34;95427.94;5054586;28;20448;-77
2023/10/02 01:56:18;;;;;;;9.30;7.67;;;;;;;17.38;71.03;95436.19;5054687;28;20500;-77
2023/10/02 01:58:48;;;;;;;14.30;9.03;;;;;;;17.48;72.32;95447.50;5054400;28;20760;-77
2023/10/02 02:01:14;;;;;;;11.17;7.73;;;;;;;17.52;71.41;95448.00;5054498;28;20445;-77
2023/10/02 02:03:42;;;;;;;10.77;8.07;;;;;;;17.48;71.82;95446.66;5054266;28;20449;-77
2023/10/02 02:06:10;;;;;;;11.37;8.23;;;;;;;17.43;71.89;95452.44;5053937;28;20492;-77
2023/10/02 02:08:38;;;;;;;9.27;7.27;;;;;;;17.47;74.71;95445.00;5054120;28;20845;-77
2023/10/02 02:11:16;;;;;;;12.70;7.63;;;;;;;17.46;72.42;95444.16;5053930;28;20441;-77
2023/10/02 02:13:48;;;;;;;10.90;8.03;;;;;;;17.39;70.88;95447.63;5054129;28;20810;-77
2023/10/02 02:16:17;;;;;;;7.57;6.77;;;;;;;17.31;71.55;95443.91;5053982;28;20946;-77
2023/10/02 02:18:45;;;;;;;9.77;7.57;;;;;;;17.19;71.57;95452.31;5053941;28;20448;-77
2023/10/02 02:21:16;;;;;;;9.50;7.97;;;;;;;17.26;72.17;95454.16;5054020;28;20445;-77
2023/10/02 02:23:45;;;;;;;18.00;7.70;;;;;;;17.25;71.37;95460.47;5054082;28;20483;-77
2023/10/02 02:26:20;;;;;;;10.23;7.70;;;;;;;17.23;71.61;95453.66;5053804;28;20538;-77
2023/10/02 02:28:51;;;;;;;7.83;6.63;;;;;;;17.10;70.26;95451.44;5052940;28;20503;-77
2023/10/02 02:31:30;;;;;;;10.87;7.60;;;;;;;17.16;72.25;95458.75;5053788;28;20800;-77
2023/10/02 02:33:58;;;;;;;10.43;6.47;;;;;;;17.08;69.35;95461.38;5053836;28;20456;-77
2023/10/02 02:36:27;;;;;;;9.70;6.70;;;;;;;17.14;70.10;95457.25;5053583;28;20447;-77
2023/10/02 02:39:17;;;;;;;10.33;7.07;;;;;;;17.11;70.12;95458.41;5053647;28;20854;-77
2023/10/02 02:41:45;;;;;;;12.90;6.90;;;;;;;17.06;68.85;95462.47;5053408;28;20975;-78
2023/10/02 02:44:36;;;;;;;9.37;7.00;;;;;;;17.04;70.49;95467.94;5053644;28;20486;-77
2023/10/02 02:47:07;;;;;;;15.00;7.00;;;;;;;17.06;67.77;95468.66;5053455;28;20499;-77
2023/10/02 02:49:48;;;;;;;10.53;6.00;;;;;;;17.06;66.71;95467.78;5053370;28;20449;-77
2023/10/02 02:52:16;;;;;;;11.57;6.90;;;;;;;17.11;67.37;95470.81;5053175;28;20484;-78
2023/10/02 02:54:47;;;;;;;7.37;5.77;;;;;;;17.18;67.18;95472.69;5034471;28;20437;-77
2023/10/02 02:57:15;;;;;;;10.70;6.33;;;;;;;17.19;67.08;95458.44;5053275;28;20546;-77
2023/10/02 02:59:45;;;;;;;7.70;5.60;;;;;;;17.07;65.58;95457.06;5053097;28;20456;-77
2023/10/02 03:02:21;;;;;;;7.97;6.40;;;;;;;17.04;69.32;95460.81;5053173;28;20535;-77
2023/10/02 03:04:56;;;;;;;7.33;6.10;;;;;;;16.91;66.03;95456.94;5052993;28;20943;-77
2023/10/02 03:07:30;;;;;;;8.20;6.30;;;;;;;16.92;67.46;95455.94;5053289;28;20483;-78
2023/10/02 03:09:59;;;;;;;9.23;6.93;;;;;;;16.93;67.17;95460.25;5052926;28;20476;-77
2023/10/02 03:12:27;;;;;;;9.97;6.67;;;;;;;16.97;66.35;95467.75;5053014;28;20484;-77
2023/10/02 03:14:56;;;;;;;7.67;5.70;;;;;;;16.99;67.01;95457.81;5052712;28;20473;-77
2023/10/02 03:17:29;;;;;;;10.73;7.20;;;;;;;17.09;70.04;95459.53;5017562;28;20449;-77
2023/10/02 03:19:57;;;;;;;10.57;7.43;;;;;;;17.15;67.59;95462.41;5052778;28;20437;-77
2023/10/02 03:22:27;;;;;;;10.20;6.30;;;;;;;17.05;64.80;95456.34;5052899;28;21014;-78
2023/10/02 03:24:57;;;;;;;9.07;6.50;;;;;;;16.94;65.00;95453.97;5052767;28;20938;-77
2023/10/02 03:27:26;;;;;;;7.10;5.23;;;;;;;16.88;64.92;95459.88;5052796;28;20487;-77
2023/10/02 03:29:52;;;;;;;7.80;5.60;;;;;;;16.88;64.76;95466.03;5052643;28;20517;-77
2023/10/02 03:32:21;;;;;;;10.83;6.77;;;;;;;16.87;64.10;95468.84;5053011;28;20475;-77
2023/10/02 03:35:02;;;;;;;10.80;7.00;;;;;;;16.92;65.18;95466.53;5052759;28;20472;-77
2023/10/02 03:37:29;;;;;;;9.47;6.80;;;;;;;16.94;66.33;95464.56;5021910;28;20456;-77
2023/10/02 03:40:14;;;;;;;17.93;8.00;;;;;;;16.92;65.15;95461.25;5052354;28;20462;-77
2023/10/02 03:42:41;;;;;;;15.63;10.50;;;;;;;16.95;64.39;95460.94;5052587;28;20452;-77
2023/10/02 03:45:08;;;;;;;10.07;6.97;;;;;;;16.88;62.71;95470.50;5017358;28;20808;-78
2023/10/02 03:47:37;;;;;;;13.70;8.17;;;;;;;16.81;63.37;95474.75;5052445;28;20492;-77
2023/10/02 03:50:11;;;;;;;15.10;7.97;;;;;;;16.75;63.92;95470.03;5052498;28;20533;-77
2023/10/02 03:52:41;;;;;;;24.27;10.43;;;;;;;16.77;63.07;95468.06;5052448;28;20437;-77
2023/10/02 03:55:16;;;;;;;12.37;7.37;;;;;;;16.84;62.60;95469.13;5052403;28;20449;-77
2023/10/02 03:57:47;;;;;;;14.30;7.33;;;;;;;16.89;62.75;95467.69;5052459;28;20456;-77
2023/10/02 04:00:18;;;;;;;8.03;6.03;;;;;;;16.73;61.77;95473.69;5052489;28;21063;-76
2023/10/02 04:02:49;;;;;;;14.33;8.17;;;;;;;16.75;61.94;95464.75;5052676;28;20982;-77
2023/10/02 04:05:30;;;;;;;7.87;6.50;;;;;;;16.79;62.75;95466.97;5052259;28;20441;-77
2023/10/02 04:08:14;;;;;;;13.50;5.60;;;;;;;16.74;61.42;95471.84;5052275;28;20828;-77
2023/10/02 04:11:02;;;;;;;8.33;5.87;;;;;;;16.80;60.72;95473.09;5052362;28;20535;-77
2023/10/02 04:13:39;;;;;;;11.70;6.30;;;;;;;16.71;62.58;95483.59;5052296;28;20451;-77
2023/10/02 04:18:58;;;;;;;6.60;5.83;;;;;;;16.68;61.03;95489.22;5050327;28;20542;-76
2023/10/02 04:21:25;;;;;;;10.10;6.20;;;;;;;16.60;61.05;95489.13;5028493;28;20536;-77
2023/10/02 04:23:53;;;;;;;14.43;9.07;;;;;;;16.54;60.25;95494.19;5052148;28;20450;-77
2023/10/02 04:26:21;;;;;;;10.07;5.57;;;;;;;16.54;62.36;95499.50;5051291;28;20488;-77
2023/10/02 04:28:55;;;;;;;7.97;5.60;;;;;;;16.44;60.52;95507.50;5052078;28;20448;-77
2023/10/02 04:31:23;;;;;;;9.30;5.77;;;;;;;16.41;61.65;95505.16;5051885;28;20894;-77
2023/10/02 04:34:15;;;;;;;9.03;5.50;;;;;;;16.36;61.55;95502.13;5052013;28;20526;-77
2023/10/02 04:36:42;;;;;;;15.23;6.10;;;;;;;16.34;60.71;95506.75;5051956;28;20456;-77
2023/10/02 04:39:51;;;;;;;12.50;9.10;;;;;;;16.28;61.03;95512.66;5052412;28;21144;-78
2023/10/02 04:44:56;;;;;;;9.50;5.80;;;;;;;16.27;61.25;95513.63;4971213;28;20450;-77
2023/10/02 04:47:26;;;;;;;8.07;5.10;;;;;;;16.23;60.54;95520.22;4971242;28;20516;-77
2023/10/02 04:52:57;;;;;;;11.30;5.80;;;;;;;16.28;61.76;95526.72;4972461;28;20514;-77
2023/10/02 04:55:25;;;;;;;12.03;6.50;;;;;;;16.30;61.13;95521.28;4973638;28;20455;-77
2023/10/02 04:57:54;;;;;;;8.90;5.27;;;;;;;16.29;61.80;95516.97;4973499;28;20455;-78
2023/10/02 05:00:32;;;;;;;11.37;6.23;;;;;;;16.42;61.40;95525.34;4973728;28;20863;-77
2023/10/02 05:03:17;;;;;;;9.43;5.60;;;;;;;16.43;62.06;95530.50;4944331;28;20449;-76
2023/10/02 05:05:49;;;;;;;11.23;5.70;;;;;;;16.62;72.89;95520.75;4973432;28;20455;-77
2023/10/02 05:08:21;;;;;;;9.40;5.53;;;;;;;16.63;66.44;95530.38;4942272;28;20509;-76
2023/10/02 05:10:49;;;;;;;9.80;5.27;;;;;;;16.65;61.83;95531.06;4973521;28;20498;-76
2023/10/02 05:16:08;;;;;;;14.73;6.93;;;;;;;16.68;64.42;95531.63;4972358;28;20904;-77
2023/10/02 05:18:34;;;;;;;12.60;5.13;;;;;;;16.92;61.81;95532.81;4973351;28;20456;-78
2023/10/02 05:21:03;;;;;;;11.10;5.57;;;;;;;17.16;58.75;95532.19;4986934;28;20840;-78
2023/10/02 05:23:30;;;;;;;21.27;12.20;;;;;;;17.17;58.36;95537.34;5055037;28;20231;-77
2023/10/02 05:26:02;;;;;;;10.90;7.07;;;;;;;17.08;58.67;95540.09;5053861;28;21021;-77
2023/10/02 05:28:42;;;;;;;9.70;6.10;;;;;;;16.93;59.13;95537.97;5053649;28;20482;-77
2023/10/02 05:31:11;;;;;;;6.60;4.67;;;;;;;16.93;59.18;95539.78;5053994;28;20445;-77
2023/10/02 05:33:38;;;;;;;12.70;6.20;;;;;;;17.17;58.88;95545.28;5053909;28;20446;-77
2023/10/02 05:36:08;;;;;;;10.60;6.00;;;;;;;17.38;57.51;95544.94;5066892;28;20437;-76
2023/10/02 05:38:37;;;;;;;13.63;5.60;;;;;;;17.23;57.74;95544.66;5016763;28;20974;-76
2023/10/02 05:41:12;;;;;;;11.17;5.23;;;;;;;17.18;58.41;95543.47;5051658;28;20448;-76
2023/10/02 05:43:55;;;;;;;10.70;5.70;;;;;;;17.29;57.44;95543.22;5053129;28;20482;-77
2023/10/02 05:46:23;;;;;;;7.57;4.60;;;;;;;17.29;57.09;95544.03;5021937;28;20459;-77
2023/10/02 05:49:00;;;;;;;10.57;5.30;;;;;;;17.26;60.74;95533.75;5035379;28;20924;-78
2023/10/02 05:51:45;;;;;;;7.90;5.00;;;;;;;17.41;56.99;95549.13;5052754;28;20473;-77
2023/10/02 05:54:13;;;;;;;8.37;4.30;;;;;;;17.68;56.02;95554.28;5053838;28;20460;-77
2023/10/02 05:56:40;;;;;;;6.63;4.77;;;;;;;17.99;56.62;95556.44;5053395;28;20910;-77
2023/10/02 05:59:06;;;;;;;7.73;5.63;;;;;;;18.21;54.34;95550.53;5045424;28;20450;-77
2023/10/02 06:01:34;;;;;;;8.17;4.73;;;;;;;18.20;54.44;95546.22;5053691;28;20475;-77
2023/10/02 06:04:01;;;;;;;8.10;5.17;;;;;;;18.35;53.46;95552.59;5053368;28;20205;-78
2023/10/02 06:06:35;;;;;;;7.47;4.50;;;;;;;18.51;53.72;95560.63;5053341;28;20487;-77
2023/10/02 06:09:12;;;;;;;8.00;4.50;;;;;;;18.69;53.36;95567.66;5017929;28;20434;-77
2023/10/02 06:11:59;;;;;;;8.83;5.77;;;;;;;18.94;54.26;95553.41;5053519;28;20463;-77
2023/10/02 06:14:27;;;;;;;7.27;4.47;;;;;;;18.97;52.34;95558.38;5053539;28;20459;-77
2023/10/02 06:16:54;;;;;;;9.67;5.10;;;;;;;19.10;51.76;95564.06;5053020;28;20819;-77
2023/10/02 06:19:22;;;;;;;10.47;5.07;;;;;;;19.26;51.43;95551.75;5053685;28;20434;-78
2023/10/02 06:22:04;;;;;;;8.73;5.37;;;;;;;19.40;51.03;95562.56;5052924;28;20460;-76
2023/10/02 06:24:31;;;;;;;13.53;9.10;;;;;;;19.58;51.70;95562.38;5053014;28;20529;-78
2023/10/02 06:27:04;;;;;;;8.93;5.50;;;;;;;19.83;49.81;95563.16;5017710;28;20429;-79
2023/10/02 06:29:33;;;;;;;8.33;4.70;;;;;;;19.77;49.29;95569.19;5053130;28;20502;-78
2023/10/02 06:32:03;;;;;;;9.17;4.03;;;;;;;19.85;48.80;95571.81;5052827;28;20448;-78
2023/10/02 06:34:36;;;;;;;11.93;4.90;;;;;;;19.87;49.00;95568.97;5053043;28;20437;-78
2023/10/02 06:37:11;;;;;;;11.53;5.87;;;;;;;19.84;49.35;95582.66;5017564;28;20439;-78
2023/10/02 06:39:40;;;;;;;9.47;5.67;;;;;;;19.63;53.14;95573.34;5053477;28;20445;-78
2023/10/02 06:42:08;;;;;;;8.77;4.80;;;;;;;19.60;49.52;95581.69;5052332;28;20439;-78
2023/10/02 06:44:41;;;;;;;11.47;6.67;;;;;;;19.67;50.00;95582.69;5053020;28;20237;-78
2023/10/02 06:47:13;;;;;;;8.07;6.20;;;;;;;19.69;49.17;95588.69;5052765;28;20445;-78
2023/10/02 06:49:41;;;;;;;9.23;7.73;;;;;;;19.87;49.07;95593.78;5052626;28;20944;-78
2023/10/02 06:52:16;;;;;;;11.57;8.90;;;;;;;20.16;48.67;95592.38;5052722;28;20512;-78
2023/10/02 06:54:45;;;;;;;17.00;7.73;;;;;;;20.16;48.55;95595.88;5052579;28;20442;-78
2023/10/02 06:57:15;;;;;;;13.30;9.20;;;;;;;20.30;49.13;95595.16;5052693;28;20881;-78
2023/10/02 06:59:51;;;;;;;12.20;9.03;;;;;;;20.44;48.36;95590.97;5052437;28;20441;-78
2023/10/02 07:02:19;;;;;;;10.10;6.40;;;;;;;20.53;47.84;95589.09;5052354;28;20931;-78
2023/10/02 07:04:47;;;;;;;11.20;6.03;;;;;;;20.63;48.00;95593.22;5052769;28;20544;-79
2023/10/02 07:07:20;;;;;;;10.07;6.00;;;;;;;20.44;47.67;95590.13;5052150;28;20492;-78
2023/10/02 07:09:48;;;;;;;7.63;4.47;;;;;;;20.53;48.10;95597.09;5052466;28;20450;-78
2023/10/02 07:12:15;;;;;;;12.27;5.33;;;;;;;20.61;48.10;95592.56;5052246;28;20452;-78
2023/10/02 07:14:43;;;;;;;9.13;7.03;;;;;;;20.45;48.91;95591.78;5051799;28;20455;-78
2023/10/02 07:17:17;;;;;;;8.70;6.60;;;;;;;20.56;49.13;95591.44;5033697;28;20860;-78
2023/10/02 07:19:49;;;;;;;12.70;5.70;;;;;;;20.54;47.71;95586.28;5052465;28;20446;-78
2023/10/02 07:22:24;;;;;;;7.33;5.10;;;;;;;20.60;47.50;95576.75;5052196;28;20922;-79
2023/10/02 07:24:56;;;;;;;8.40;6.00;;;;;;;20.71;47.64;95598.50;5052175;28;20451;-78
2023/10/02 07:27:27;;;;;;;9.70;5.70;;;;;;;20.81;46.96;95590.28;5052160;28;20577;-78
2023/10/02 07:29:56;;;;;;;10.57;4.87;;;;;;;20.66;47.81;95594.72;5052367;28;20448;-78
2023/10/02 07:32:26;;;;;;;14.70;6.47;;;;;;;20.36;48.25;95599.81;5052116;28;20454;-78
2023/10/02 07:34:54;;;;;;;10.17;7.13;;;;;;;20.03;51.17;95592.94;5052080;28;20443;-78
2023/10/02 07:37:24;;;;;;;7.03;5.10;;;;;;;20.16;50.55;95595.03;5052037;28;20527;-78
2023/10/02 07:40:00;;;;;;;9.47;4.97;;;;;;;20.13;48.67;95598.06;5051993;28;20515;-78
2023/10/02 07:42:29;;;;;;;18.23;7.90;;;;;;;20.27;49.08;95600.03;5051804;28;20814;-78
2023/10/02 07:45:12;;;;;;;15.53;6.50;;;;;;;20.13;49.22;95601.56;5052154;28;20548;-78
2023/10/02 07:50:33;;;;;;;12.23;6.93;;;;;;;20.39;49.79;95595.97;5052155;28;20550;-78
2023/10/02 07:53:04;;;;;;;9.50;6.30;;;;;;;20.63;49.93;95595.06;5052105;28;20437;-78
2023/10/02 07:55:34;;;;;;;8.10;5.87;;;;;;;20.80;48.30;95593.94;5066549;28;20461;-78
2023/10/02 07:58:01;;;;;;;8.23;5.97;;;;;;;20.84;47.61;95591.78;5049665;28;20450;-78
2023/10/02 08:00:38;;;;;;;7.13;5.20;;;;;;;20.85;49.03;95598.78;5016461;28;20441;-78
2023/10/02 08:05:51;;;;;;;8.27;5.80;;;;;;;21.06;48.08;95582.09;5052032;28;20479;-81
2023/10/02 08:08:20;;;;;;;12.23;7.57;;;;;;;21.18;47.59;95586.03;5051674;28;20519;-78
2023/10/02 08:10:50;;;;;;;10.50;8.37;;;;;;;21.17;46.96;95589.72;5051606;28;20478;-78
2023/10/02 08:13:17;;;;;;;12.63;7.47;;;;;;;21.22;48.35;95588.19;5051669;28;20443;-78
2023/10/02 08:15:45;;;;;;;10.57;6.30;;;;;;;21.33;47.62;95587.78;5051551;28;20506;-78
2023/10/02 08:18:17;;;;;;;9.20;6.40;;;;;;;21.41;46.92;95589.56;5051821;28;20444;-78
2023/10/02 08:20:45;;;;;;;9.00;5.80;;;;;;;21.36;47.16;95580.41;5051520;28;20808;-78
2023/10/02 08:23:23;;;;;;;11.33;6.40;;;;;;;21.30;47.15;95587.31;5051663;28;20451;-78
2023/10/02 08:26:02;;;;;;;15.10;6.50;;;;;;;20.89;47.40;95582.25;5052782;28;20444;-80
2023/10/02 08:28:33;;;;;;;12.13;9.10;;;;;;;20.82;48.53;95593.78;5055704;28;20975;-78
2023/10/02 08:31:03;;;;;;;16.40;7.03;;;;;;;20.69;48.46;95583.69;5055837;28;20443;-79
2023/10/02 08:33:31;;;;;;;14.63;9.87;;;;;;;20.65;48.79;95593.03;5037370;28;20453;-78
2023/10/02 08:36:01;;;;;;;16.10;9.80;;;;;;;20.68;48.53;95587.34;5055486;28;20521;-78
2023/10/02 08:38:28;;;;;;;7.20;5.70;;;;;;;20.86;51.45;95587.09;5055596;28;20449;-78
2023/10/02 08:41:00;;;;;;;9.47;8.00;;;;;;;20.90;47.65;95586.56;5055468;28;20439;-78
2023/10/02 08:43:28;;;;;;;11.80;5.80;;;;;;;20.88;47.57;95587.75;5055427;28;20473;-78
2023/10/02 08:45:55;;;;;;;12.27;9.00;;;;;;;20.66;48.48;95578.69;5055253;28;20533;-78
2023/10/02 08:48:22;;;;;;;8.50;6.70;;;;;;;20.54;47.90;95583.59;5055130;28;20481;-79
2023/10/02 08:50:49;;;;;;;19.70;11.67;;;;;;;20.66;49.29;95579.53;5055401;28;20445;-78
2023/10/02 08:53:22;;;;;;;9.87;6.90;;;;;;;20.65;48.76;95591.22;5055115;28;20446;-78
2023/10/02 08:55:58;;;;;;;22.00;11.93;;;;;;;20.68;47.77;95585.53;5055151;28;20443;-78
2023/10/02 08:58:27;;;;;;;10.60;8.33;;;;;;;20.79;49.01;95573.59;5054896;28;20454;-78
2023/10/02 09:01:17;;;;;;;14.23;8.23;;;;;;;20.95;50.40;95584.19;5055098;28;20650;-78
2023/10/02 09:04:21;;;;;;;15.67;10.20;;;;;;;21.02;47.25;95577.13;5055406;28;20494;-78
2023/10/02 09:06:44;;;;;;;21.13;11.63;;;;;;;21.12;47.29;95578.75;5054854;28;20453;-78
2023/10/02 09:09:27;;;;;;;8.93;5.87;;;;;;;21.02;46.77;95576.31;5054743;28;20578;-78
2023/10/02 09:11:57;;;;;;;17.70;7.47;;;;;;;20.99;47.02;95569.47;5054894;28;20952;-78
2023/10/02 09:17:23;;;;;;;15.83;5.03;;;;;;;21.15;46.88;95578.41;5156308;27;20875;-77
2023/10/02 09:19:55;;;;;;;7.97;4.50;;;;;;;21.12;46.27;95573.41;5089602;28;20435;-79
2023/10/02 09:22:25;;;;;;;9.37;7.00;;;;;;;21.21;50.14;95567.81;5089986;28;20904;-77
2023/10/02 09:27:56;;;;;;;8.77;6.10;;;;;;;21.39;47.01;95572.88;5046986;28;20440;-77
2023/10/02 09:30:36;;;;;;;8.70;5.30;;;;;;;21.37;45.59;95571.41;4999760;28;20447;-77
2023/10/02 09:33:10;;;;;;;8.30;6.03;;;;;;;21.43;46.21;95578.72;5047075;28;20503;-77
2023/10/02 09:35:42;;;;;;;8.93;5.20;;;;;;;21.50;45.88;95572.47;5046810;28;20546;-79
2023/10/02 09:38:13;;;;;;;18.47;9.47;;;;;;;21.50;45.84;95580.47;5046954;28;20529;-79
2023/10/02 09:40:59;;;;;;;12.47;8.20;;;;;;;21.48;46.95;95579.81;5046847;28;20483;-78
2023/10/02 09:43:27;;;;;;;9.70;6.47;;;;;;;21.65;45.97;95572.47;5046784;28;20908;-78
2023/10/02 09:45:55;;;;;;;6.10;5.43;;;;;;;21.73;45.35;95564.41;5046759;28;20456;-79
2023/10/02 09:49:01;;;;;;;18.90;6.53;;;;;;;21.76;45.04;95560.53;5046612;28;20438;-76
2023/10/02 09:51:38;;;;;;;9.20;5.70;;;;;;;21.69;45.49;95564.97;5046778;28;20504;-79
2023/10/02 09:54:17;;;;;;;7.97;5.90;;;;;;;21.76;45.57;95571.22;5046526;28;20802;-77
2023/10/02 09:57:04;;;;;;;10.73;6.30;;;;;;;21.51;44.16;95563.44;5046514;28;20491;-80
2023/10/02 09:59:37;;;;;;;10.97;5.97;;;;;;;21.53;44.58;95555.25;5046638;28;20440;-79
2023/10/02 10:08:18;;;;;;;11.20;5.63;;;;;;;21.33;44.09;95562.91;5089092;28;20436;-79
2023/10/02 10:10:46;;;;;;;9.57;5.73;;;;;;;21.43;44.78;95563.50;5089174;28;20476;-79
2023/10/02 10:13:26;;;;;;;14.77;7.97;;;;;;;21.55;44.35;95562.06;5070071;28;20451;-78
2023/10/02 10:16:29;;;;;;;12.50;6.13;;;;;;;21.46;42.21;95567.66;5088397;28;20493;-79
2023/10/02 10:19:27;;;;;;;10.57;7.10;;;;;;;21.44;44.47;95567.00;5088958;28;20454;-78
2023/10/02 10:21:58;;;;;;;10.63;5.93;;;;;;;21.46;43.18;95560.47;5088540;28;20442;-79
2023/10/02 10:24:56;;;;;;;14.47;6.77;;;;;;;21.44;42.81;95551.00;5088535;28;20459;-78
2023/10/02 10:28:00;;;;;;;15.97;6.80;;;;;;;21.47;42.69;95550.63;5082150;28;20957;-79
2023/10/02 10:30:43;;;;;;;10.40;7.33;;;;;;;21.57;42.39;95548.53;5075325;28;20459;-78
2023/10/02 10:33:46;;;;;;;10.00;6.53;;;;;;;21.64;40.78;95536.91;5075609;28;20479;-80
2023/10/02 10:36:37;;;;;;;11.10;5.63;;;;;;;21.67;40.21;95540.25;5075098;28;20989;-79
2023/10/02 10:39:44;;;;;;;12.27;5.57;;;;;;;21.75;39.38;95527.66;5075652;28;20457;-78
2023/10/02 10:42:10;;;;;;;8.00;5.60;;;;;;;21.79;40.99;95530.78;5075212;28;20449;-79
2023/10/02 10:44:43;;;;;;;16.23;6.00;;;;;;;21.90;40.56;95519.63;5067405;28;20465;-80
2023/10/02 10:47:14;;;;;;;7.03;5.73;;;;;;;22.00;41.20;95522.88;5062078;28;20439;-79
2023/10/02 10:50:11;;;;;;;11.67;6.07;;;;;;;21.94;41.04;95526.25;5074792;28;20509;-79
2023/10/02 10:52:44;;;;;;;11.50;6.20;;;;;;;21.88;40.39;95525.16;5074321;28;20739;-83
2023/10/02 10:55:33;;;;;;;9.50;6.40;;;;;;;21.85;40.37;95522.03;5074490;28;21033;-79
2023/10/02 10:58:01;;;;;;;8.57;5.87;;;;;;;21.94;39.91;95507.53;5074527;28;20459;-79
2023/10/02 11:00:31;;;;;;;11.80;7.03;;;;;;;21.99;42.41;95521.22;5034535;28;20793;-78
2023/10/02 11:03:08;;;;;;;6.70;5.80;;;;;;;21.98;40.72;95518.72;5054143;28;20496;-78
2023/10/02 11:05:35;;;;;;;10.57;6.50;;;;;;;22.04;49.63;95516.16;5057969;28;20851;-78
2023/10/02 11:08:28;;;;;;;8.27;6.00;;;;;;;22.18;39.97;95507.28;5055077;28;20535;-77
2023/10/02 11:11:11;;;;;;;11.57;6.40;;;;;;;22.32;40.84;95502.13;5032914;28;20471;-78
2023/10/02 11:13:51;;;;;;;9.37;5.60;;;;;;;22.44;40.74;95512.13;5045140;28;20439;-78
2023/10/02 11:16:31;;;;;;;10.83;6.30;;;;;;;22.49;41.32;95508.88;5037828;28;20491;-78
2023/10/02 11:19:14;;;;;;;9.90;5.50;;;;;;;22.38;40.05;95502.19;5047681;28;20527;-78
2023/10/02 11:21:47;;;;;;;7.47;6.53;;;;;;;22.39;40.35;95503.84;5032036;28;20465;-78
2023/10/02 11:24:21;;;;;;;8.23;5.80;;;;;;;22.39;40.79;95503.00;4982685;28;20543;-78
2023/10/02 11:26:53;;;;;;;7.93;5.70;;;;;;;22.50;41.16;95505.19;5032042;28;20455;-78
2023/10/02 11:29:21;;;;;;;12.10;6.93;;;;;;;22.60;41.29;95494.22;5031961;28;20443;-78
2023/10/02 11:32:19;;;;;;;7.33;6.43;;;;;;;22.71;40.54;95491.84;5032084;28;20439;-78
2023/10/02 11:34:46;;;;;;;8.00;5.80;;;;;;;22.72;41.09;95488.16;5031907;28;20443;-78
2023/10/02 11:37:13;;;;;;;9.00;6.20;;;;;;;22.77;41.09;95491.09;5031861;28;20494;-78
2023/10/02 11:39:40;;;;;;;15.37;6.07;;;;;;;22.75;41.08;95484.28;5030980;28;20443;-78
2023/10/02 11:42:09;;;;;;;8.70;6.30;;;;;;;22.80;41.10;95489.88;5031893;28;20455;-78
2023/10/02 11:44:39;;;;;;;12.20;7.70;;;;;;;22.81;41.42;95480.84;5031764;28;20467;-77
2023/10/02 11:47:09;;;;;;;10.50;6.27;;;;;;;22.71;42.40;95483.00;5033965;28;20598;-78
2023/10/02 11:49:36;;;;;;;12.60;6.53;;;;;;;22.78;41.04;95489.22;5054178;28;20443;-78
2023/10/02 11:52:04;;;;;;;14.13;7.60;;;;;;;22.72;42.90;95488.16;5054019;28;20806;-78
2023/10/02 11:54:32;;;;;;;10.97;7.27;;;;;;;22.75;41.90;95470.88;5054072;28;20439;-76
2023/10/02 11:56:59;;;;;;;10.10;6.93;;;;;;;22.76;41.11;95472.53;5053960;28;20492;-77
2023/10/02 11:59:30;;;;;;;11.93;7.43;;;;;;;22.63;41.18;95473.25;5053608;28;20444;-78
2023/10/02 12:01:57;;;;;;;9.23;6.70;;;;;;;22.61;43.15;95472.63;5053498;28;20884;-78
2023/10/02 12:04:26;;;;;;;12.70;8.57;;;;;;;22.52;42.24;95471.06;5053932;28;20451;-78
2023/10/02 12:06:54;;;;;;;13.20;7.70;;;;;;;22.40;42.62;95480.59;5053667;28;20455;-77
2023/10/02 12:09:23;;;;;;;13.33;8.10;;;;;;;22.33;44.14;95471.69;5053724;28;20811;-78
2023/10/02 12:11:50;;;;;;;9.30;6.83;;;;;;;22.19;43.79;95476.84;5053573;28;20503;-77
2023/10/02 12:14:17;;;;;;;6.70;6.07;;;;;;;22.19;43.84;95470.69;5053279;28;20483;-78
2023/10/02 12:16:45;;;;;;;10.60;6.93;;;;;;;22.21;43.47;95474.81;5053371;28;20495;-77
2023/10/02 12:19:15;;;;;;;19.73;9.47;;;;;;;22.21;43.57;95474.81;5053218;28;20456;-78
2023/10/02 12:21:42;;;;;;;14.17;8.60;;;;;;;22.20;43.19;95467.81;5063375;28;20448;-79
2023/10/02 12:24:09;;;;;;;9.07;6.83;;;;;;;22.12;44.18;95472.47;5073052;28;20530;-78
2023/10/02 12:26:36;;;;;;;8.60;6.33;;;;;;;22.11;44.44;95463.59;5037976;28;20822;-78